Metar Cercanos

 

LEPA - Palma De Mallorc, Spain
Distance from station: ONO 38km
Actualización: Sat, 25-May-2024 1:30am CEST
Few Clouds
Few Clouds
 Viento del ENE
Viento: ENE 7 km/h
Temperatura: 19°C
Rocío: 17°C
Humedad: 88%
Barómetro: 1017 hPa
Clouds: Few Clouds
Visibility: 10 km
Cloud details: Few Clouds 549 m
2024/05/24 23:30 LEPA 242330Z 06004KT 9999 FEW018 19/17 Q1017 NOSIG
LEMH - Mahon/Menorca Is, Spain
Distance from station: ENE 105km
Actualización: Sat, 25-May-2024 1:30am CEST
Parcialmente nuboso
Parcialmente nuboso
 Viento del NE
Viento: NE 11 km/h
Temperatura: 18°C
Rocío: 18°C
Humedad: 100%
Barómetro: 1017 hPa
Clouds: Parcialmente nuboso
Visibility: 10 km
Cloud details: Few Clouds 335 m
Parcialmente nuboso 549 m
2024/05/24 23:30 LEMH 242330Z AUTO 05006KT 9999 FEW011/// SCT018/// 18/18 Q1017
 
LEIB - Ibiza/Es Codola, Spain
Distance from station: OSO 165km
Actualización: Sat, 25-May-2024 1:30am CEST
Despejado
Despejado
 Viento del NNE
Viento: NNE 6 km/h
Temperatura: 18°C
Rocío: 16°C
Humedad: 88%
Barómetro: 1017 hPa
Resumen: Despejado
Visibility: greater than 10 km
2024/05/24 23:30 LEIB 242330Z 03003KT 010V070 CAVOK 18/16 Q1017 NOSIG
LEBL - Barcelona Airpor, Spain
Distance from station: NNO 225km
Actualización: Sat, 25-May-2024 1:30am CEST
Few Clouds
Few Clouds
 Viento del ENE
Viento: ENE 11 km/h
Temperatura: 17°C
Rocío: 14°C
Humedad: 83%
Barómetro: 1018 hPa
Clouds: Few Clouds
Visibility: 10 km
Cloud details: Few Clouds 610 m
2024/05/24 23:30 LEBL 242330Z 06006KT 9999 FEW020 17/14 Q1018 NOSIG
 
LEVC - Valencia (civ/Mi, Spain
Distance from station: NO 188km
Actualización: Sat, 25-May-2024 1:30am CEST
Few Clouds
Few Clouds
 Viento del NE
Viento: NE 7 km/h
Temperatura: 19°C
Rocío: 16°C
Humedad: 83%
Barómetro: 1018 hPa
Clouds: Few Clouds
Visibility: 10 km
Cloud details: Few Clouds 396 m
2024/05/24 23:30 LEVC 242330Z 05004KT 350V090 9999 FEW013 19/16 Q1018 NOSIG
LEGE - Gerona/Costa Bra, Spain
Distance from station: N 276km
Actualización: Sat, 25-May-2024 1:30am CEST
Despejado
Despejado
 Viento del varies
Viento: varies 4 km/h
Temperatura: 12°C
Rocío: 11°C
Humedad: 94%
Barómetro: 1018 hPa
Resumen: Despejado
Visibility: greater than 10 km
2024/05/24 23:30 LEGE 242330Z VRB02KT CAVOK 12/11 Q1018 NOSIG
 
LEAL - Alicante/El Alte, Spain
Distance from station: OSO 344km
Actualización: Sat, 25-May-2024 1:30am CEST
Despejado
Despejado
 Viento del OSO
Viento: OSO 9 km/h
Temperatura: 18°C
Rocío: 15°C
Humedad: 83%
Barómetro: 1017 hPa
Resumen: Despejado
Visibility: greater than 10 km
2024/05/24 23:30 LEAL 242330Z 24005KT CAVOK 18/15 Q1017 NOSIG
LEAM - Almeria Airport, Spain
Distance from station: SSO 56km
Actualización: Sat, 25-May-2024 1:30am CEST
Cubierto
Cubierto
 Viento del OSO
Viento: OSO 15 km/h
Temperatura: 20°C
Rocío: 16°C
Humedad: 78%
Barómetro: 1018 hPa
Clouds: Cubierto
Visibility: 10 km
Cloud details: Cubierto 792 m
2024/05/24 23:30 LEAM 242330Z AUTO 24008KT 9999 OVC026 20/16 Q1018
 
LEZG - Zaragoza (mil/Ci, Spain
Distance from station: NO 431km
Actualización: Sat, 25-May-2024 1:30am CEST
Despejado
Despejado
 Viento del E
Viento: E 7 km/h
Temperatura: 19°C
Rocío: 13°C
Humedad: 68%
Barómetro: 1017 hPa
Resumen: Despejado
Visibility: greater than 10 km
2024/05/24 23:30 LEZG 242330Z 10004KT CAVOK 19/13 Q1017 NOSIG
LEMD - Madrid/Barajas, Spain
Distance from station: ONO 234km
Actualización: Sat, 25-May-2024 1:30am CEST
Despejado
Despejado
 Viento del NNE
Viento: NNE 6 km/h
Temperatura: 19°C
Rocío: 4°C
Humedad: 37%
Barómetro: 1017 hPa
Resumen: Despejado
Visibility: greater than 10 km
2024/05/24 23:30 LEMD 242330Z 02003KT 310V070 CAVOK 19/04 Q1017 NOSIG
 
LEGR - Granada Airport, Spain
Distance from station: OSO 62km
Actualización: Sat, 25-May-2024 1:30am CEST
Despejado
Despejado
 Viento del SO
Viento: SO 9 km/h
Temperatura: 19°C
Rocío: 6°C
Humedad: 43%
Barómetro: 1018 hPa
Resumen: Despejado
Visibility: greater than 10 km
2024/05/24 23:30 LEGR 242330Z AUTO 23005KT 200V260 CAVOK 19/06 Q1018
LEMG - Malaga (civ/Mil), Spain
Distance from station: OSO 227km
Actualización: Sat, 25-May-2024 1:30am CEST
Despejado
Despejado
 Viento del E
Viento: E 7 km/h
Temperatura: 17°C
Rocío: 15°C
Humedad: 88%
Barómetro: 1018 hPa
Resumen: Despejado
Visibility: greater than 10 km
2024/05/24 23:30 LEMG 242330Z 09004KT CAVOK 17/15 Q1018 NOSIG
 
LEZL - Sevilla (civ/Mil, Spain
Distance from station: S 318km
Actualización: Sat, 25-May-2024 1:30am CEST
Despejado
Despejado
 Viento del S
Viento: S 13 km/h
Temperatura: 19°C
Rocío: 10°C
Humedad: 56%
Barómetro: 1016 hPa
Resumen: Despejado
Visibility: greater than 10 km
2024/05/24 23:30 LEZL 242330Z AUTO 18007KT CAVOK 19/10 Q1016
LEVT - Vitoria, Spain
Distance from station: NO 226km
Actualización: Sat, 25-May-2024 1:30am CEST
Few Clouds
Few Clouds
 Viento del E
Viento: E 4 km/h
Temperatura: 11°C
Rocío: 10°C
Humedad: 94%
Barómetro: 1018 hPa
Clouds: Few Clouds
Visibility: 10 km
Cloud details: Few Clouds 2286 m
2024/05/24 23:30 LEVT 242330Z 08002KT 9999 FEW075 11/10 Q1018
 
LEBB - Bilbao/Sondica, Spain
Distance from station: NNO 235km
Actualización: Sat, 25-May-2024 1:30am CEST
Despejado
Despejado
 Viento del E
Viento: E 6 km/h
Temperatura: 14°C
Rocío: 12°C
Humedad: 88%
Barómetro: 1018 hPa
Resumen: Despejado
Visibility: greater than 10 km
2024/05/24 23:30 LEBB 242330Z AUTO 08003KT CAVOK 14/12 Q1018
LESO - San Sebastian/Fu, Spain
Distance from station: N 231km
Actualización: Sat, 25-May-2024 1:30am CEST
Despejado
Despejado
 Viento del varies
Viento: varies 4 km/h
Temperatura: 14°C
Rocío: 12°C
Humedad: 88%
Barómetro: 1018 hPa
Resumen: Despejado
Visibility: greater than 10 km
2024/05/24 23:30 LESO 242330Z AUTO VRB02KT CAVOK 14/12 Q1018
 
LEVD - Valladolid(Mil/C, Spain
Distance from station: ONO 239km
Actualización: Sat, 25-May-2024 1:30am CEST
Despejado
Despejado
 Viento del SE
Viento: SE 7 km/h
Temperatura: 11°C
Rocío: 4°C
Humedad: 62%
Barómetro: 1018 hPa
Resumen: Despejado
Visibility: greater than 10 km
2024/05/24 23:30 LEVD 242330Z AUTO 13004KT CAVOK 11/04 Q1018
LESA - Salamanca (civ/M, Spain
Distance from station: ONO 349km
Actualización: Sat, 25-May-2024 1:30am CEST
Despejado
Despejado
 Viento del varies
Viento: varies 4 km/h
Temperatura: 12°C
Rocío: 6°C
Humedad: 67%
Barómetro: 1018 hPa
Resumen: Despejado
Visibility: greater than 10 km
2024/05/24 23:30 LESA 242330Z AUTO VRB02KT CAVOK 12/06 Q1018
 
LEXJ - Santander/Paraya, Spain
Distance from station: NNO 247km
Actualización: Sat, 25-May-2024 1:30am CEST
Despejado
Despejado
 Viento del E
Viento: E 6 km/h
Temperatura: 14°C
Rocío: 12°C
Humedad: 88%
Barómetro: 1017 hPa
Resumen: Despejado
Visibility: greater than 10 km
2024/05/24 23:30 LEXJ 242330Z AUTO 09003KT 050V140 CAVOK 14/12 Q1017
LEAS - Asturias/Aviles, Spain
Distance from station: NO 214km
Actualización: Sat, 25-May-2024 1:30am CEST
Despejado
Despejado
 Viento del SE
Viento: SE 6 km/h
Temperatura: 12°C
Rocío: 11°C
Humedad: 94%
Barómetro: 1016 hPa
Resumen: Despejado
Visibility: greater than 10 km
2024/05/24 23:30 LEAS 242330Z 14003KT 100V170 CAVOK 12/11 Q1016 NOSIG
 
LECO - La Coruna/Alvedr, Spain
Distance from station: ONO 222km
Actualización: Sat, 25-May-2024 1:30am CEST
Despejado
Despejado
 Viento del S
Viento: S 11 km/h
Temperatura: 13°C
Rocío: 10°C
Humedad: 82%
Barómetro: 1016 hPa
Resumen: Despejado
Visibility: greater than 10 km
2024/05/24 23:30 LECO 242330Z AUTO 17006KT CAVOK 13/10 Q1016
LEVX - Vigo/Peinador, Spain
Distance from station: O 214km
Actualización: Sat, 25-May-2024 1:30am CEST
Despejado
Despejado
 Viento del varies
Viento: varies 4 km/h
Temperatura: 12°C
Rocío: 8°C
Humedad: 77%
Barómetro: 1017 hPa
Resumen: Despejado
Visibility: greater than 10 km
2024/05/24 23:30 LEVX 242330Z VRB02KT CAVOK 12/08 Q1017 NOSIG